sensor_id;sensor_type;location;lat;lon;timestamp;P1;durP1;ratioP1;P2;durP2;ratioP2
43152;SDS011;28756;49.064;9.290;2022-12-18T00:01:03;39.70;;;20.10;;
43152;SDS011;28756;49.064;9.290;2022-12-18T00:03:34;36.60;;;19.23;;
43152;SDS011;28756;49.064;9.290;2022-12-18T00:06:01;35.80;;;18.67;;
43152;SDS011;28756;49.064;9.290;2022-12-18T00:08:27;29.70;;;15.50;;
43152;SDS011;28756;49.064;9.290;2022-12-18T00:10:53;39.47;;;20.77;;
43152;SDS011;28756;49.064;9.290;2022-12-18T00:13:22;41.80;;;20.83;;
43152;SDS011;28756;49.064;9.290;2022-12-18T00:15:48;50.13;;;24.27;;
43152;SDS011;28756;49.064;9.290;2022-12-18T00:18:14;48.90;;;24.60;;
43152;SDS011;28756;49.064;9.290;2022-12-18T00:20:40;49.83;;;25.63;;
43152;SDS011;28756;49.064;9.290;2022-12-18T00:23:06;53.20;;;27.27;;
43152;SDS011;28756;49.064;9.290;2022-12-18T00:25:33;50.53;;;24.63;;
43152;SDS011;28756;49.064;9.290;2022-12-18T00:28:01;48.10;;;23.87;;
43152;SDS011;28756;49.064;9.290;2022-12-18T00:30:28;49.00;;;23.57;;
43152;SDS011;28756;49.064;9.290;2022-12-18T00:32:54;49.13;;;24.80;;
43152;SDS011;28756;49.064;9.290;2022-12-18T00:35:20;48.07;;;24.43;;
43152;SDS011;28756;49.064;9.290;2022-12-18T00:37:46;43.93;;;23.60;;
43152;SDS011;28756;49.064;9.290;2022-12-18T00:40:12;46.07;;;24.37;;
43152;SDS011;28756;49.064;9.290;2022-12-18T00:42:38;46.10;;;22.27;;
43152;SDS011;28756;49.064;9.290;2022-12-18T00:45:23;42.80;;;22.37;;
43152;SDS011;28756;49.064;9.290;2022-12-18T00:47:51;40.80;;;22.27;;
43152;SDS011;28756;49.064;9.290;2022-12-18T00:50:17;43.20;;;22.10;;
43152;SDS011;28756;49.064;9.290;2022-12-18T00:52:43;47.00;;;23.23;;
43152;SDS011;28756;49.064;9.290;2022-12-18T00:55:09;48.97;;;23.70;;
43152;SDS011;28756;49.064;9.290;2022-12-18T00:57:36;47.50;;;23.33;;
43152;SDS011;28756;49.064;9.290;2022-12-18T01:00:03;45.40;;;22.70;;
43152;SDS011;28756;49.064;9.290;2022-12-18T01:02:30;43.27;;;22.17;;
43152;SDS011;28756;49.064;9.290;2022-12-18T01:04:57;43.90;;;21.87;;
43152;SDS011;28756;49.064;9.290;2022-12-18T01:07:22;41.33;;;21.70;;
43152;SDS011;28756;49.064;9.290;2022-12-18T01:09:48;42.27;;;21.60;;
43152;SDS011;28756;49.064;9.290;2022-12-18T01:12:14;43.37;;;21.87;;
43152;SDS011;28756;49.064;9.290;2022-12-18T01:14:39;42.57;;;21.17;;
43152;SDS011;28756;49.064;9.290;2022-12-18T01:17:05;43.80;;;21.83;;
43152;SDS011;28756;49.064;9.290;2022-12-18T01:19:31;40.50;;;20.13;;
43152;SDS011;28756;49.064;9.290;2022-12-18T01:21:57;44.23;;;22.60;;
43152;SDS011;28756;49.064;9.290;2022-12-18T01:24:23;38.90;;;20.03;;
43152;SDS011;28756;49.064;9.290;2022-12-18T01:26:52;40.43;;;21.33;;
43152;SDS011;28756;49.064;9.290;2022-12-18T01:29:17;44.77;;;22.07;;
43152;SDS011;28756;49.064;9.290;2022-12-18T01:31:43;42.87;;;21.43;;
43152;SDS011;28756;49.064;9.290;2022-12-18T01:34:09;44.07;;;21.70;;
43152;SDS011;28756;49.064;9.290;2022-12-18T01:36:36;44.50;;;21.67;;
43152;SDS011;28756;49.064;9.290;2022-12-18T01:39:10;43.57;;;22.53;;
43152;SDS011;28756;49.064;9.290;2022-12-18T01:41:38;42.50;;;22.33;;
43152;SDS011;28756;49.064;9.290;2022-12-18T01:50:27;43.75;;;22.05;;
43152;SDS011;28756;49.064;9.290;2022-12-18T01:53:03;40.20;;;21.73;;
43152;SDS011;28756;49.064;9.290;2022-12-18T01:55:41;42.40;;;21.93;;
43152;SDS011;28756;49.064;9.290;2022-12-18T01:58:12;43.33;;;21.87;;
43152;SDS011;28756;49.064;9.290;2022-12-18T02:00:38;42.80;;;21.77;;
43152;SDS011;28756;49.064;9.290;2022-12-18T02:03:04;43.70;;;21.73;;
43152;SDS011;28756;49.064;9.290;2022-12-18T02:08:16;40.13;;;21.80;;
43152;SDS011;28756;49.064;9.290;2022-12-18T02:14:31;42.00;;;21.03;;
43152;SDS011;28756;49.064;9.290;2022-12-18T02:27:51;43.40;;;20.33;;
43152;SDS011;28756;49.064;9.290;2022-12-18T02:30:19;38.40;;;21.07;;
43152;SDS011;28756;49.064;9.290;2022-12-18T02:32:47;42.23;;;21.40;;
43152;SDS011;28756;49.064;9.290;2022-12-18T02:35:20;42.97;;;22.73;;
43152;SDS011;28756;49.064;9.290;2022-12-18T02:37:51;45.63;;;21.93;;
43152;SDS011;28756;49.064;9.290;2022-12-18T02:40:19;45.43;;;22.53;;
43152;SDS011;28756;49.064;9.290;2022-12-18T02:42:47;43.03;;;22.63;;
43152;SDS011;28756;49.064;9.290;2022-12-18T02:45:12;41.40;;;22.20;;
43152;SDS011;28756;49.064;9.290;2022-12-18T02:47:39;53.47;;;24.23;;
43152;SDS011;28756;49.064;9.290;2022-12-18T02:53:11;43.43;;;22.03;;
43152;SDS011;28756;49.064;9.290;2022-12-18T02:55:58;51.10;;;25.47;;
43152;SDS011;28756;49.064;9.290;2022-12-18T02:58:40;50.40;;;26.30;;
43152;SDS011;28756;49.064;9.290;2022-12-18T03:07:36;45.70;;;22.53;;
43152;SDS011;28756;49.064;9.290;2022-12-18T03:10:23;43.13;;;22.57;;
43152;SDS011;28756;49.064;9.290;2022-12-18T03:12:54;44.73;;;23.20;;
43152;SDS011;28756;49.064;9.290;2022-12-18T03:15:45;50.30;;;23.63;;
43152;SDS011;28756;49.064;9.290;2022-12-18T03:18:25;42.10;;;21.43;;
43152;SDS011;28756;49.064;9.290;2022-12-18T03:21:02;42.43;;;22.07;;
43152;SDS011;28756;49.064;9.290;2022-12-18T03:23:33;37.37;;;19.17;;
43152;SDS011;28756;49.064;9.290;2022-12-18T03:26:05;40.33;;;21.23;;
43152;SDS011;28756;49.064;9.290;2022-12-18T03:28:36;43.67;;;23.30;;
43152;SDS011;28756;49.064;9.290;2022-12-18T03:31:09;45.83;;;22.50;;
43152;SDS011;28756;49.064;9.290;2022-12-18T03:33:40;51.10;;;24.53;;
43152;SDS011;28756;49.064;9.290;2022-12-18T03:36:20;48.40;;;23.53;;
43152;SDS011;28756;49.064;9.290;2022-12-18T03:38:47;50.10;;;25.63;;
43152;SDS011;28756;49.064;9.290;2022-12-18T03:41:30;49.87;;;25.37;;
43152;SDS011;28756;49.064;9.290;2022-12-18T03:46:36;56.23;;;26.80;;
43152;SDS011;28756;49.064;9.290;2022-12-18T03:49:36;55.67;;;27.03;;
43152;SDS011;28756;49.064;9.290;2022-12-18T03:52:19;54.53;;;28.30;;
43152;SDS011;28756;49.064;9.290;2022-12-18T03:55:01;51.13;;;26.67;;
43152;SDS011;28756;49.064;9.290;2022-12-18T03:57:30;59.53;;;28.80;;
43152;SDS011;28756;49.064;9.290;2022-12-18T03:59:58;61.30;;;30.40;;
43152;SDS011;28756;49.064;9.290;2022-12-18T04:02:32;57.77;;;28.47;;
43152;SDS011;28756;49.064;9.290;2022-12-18T04:05:01;53.00;;;26.97;;
43152;SDS011;28756;49.064;9.290;2022-12-18T04:07:30;57.13;;;28.73;;
43152;SDS011;28756;49.064;9.290;2022-12-18T04:09:56;61.93;;;29.77;;
43152;SDS011;28756;49.064;9.290;2022-12-18T04:12:26;52.13;;;27.33;;
43152;SDS011;28756;49.064;9.290;2022-12-18T04:14:53;60.53;;;27.70;;
43152;SDS011;28756;49.064;9.290;2022-12-18T04:17:19;53.40;;;25.70;;
43152;SDS011;28756;49.064;9.290;2022-12-18T04:19:45;57.70;;;27.33;;
43152;SDS011;28756;49.064;9.290;2022-12-18T04:22:11;55.57;;;27.43;;
43152;SDS011;28756;49.064;9.290;2022-12-18T04:24:37;52.60;;;26.43;;
43152;SDS011;28756;49.064;9.290;2022-12-18T04:27:03;49.83;;;26.03;;
43152;SDS011;28756;49.064;9.290;2022-12-18T04:29:30;48.67;;;24.30;;
43152;SDS011;28756;49.064;9.290;2022-12-18T04:31:55;51.33;;;26.33;;
43152;SDS011;28756;49.064;9.290;2022-12-18T04:34:21;53.87;;;26.90;;
43152;SDS011;28756;49.064;9.290;2022-12-18T04:36:47;45.97;;;24.97;;
43152;SDS011;28756;49.064;9.290;2022-12-18T04:39:13;50.73;;;25.27;;
43152;SDS011;28756;49.064;9.290;2022-12-18T04:41:39;50.13;;;24.63;;
43152;SDS011;28756;49.064;9.290;2022-12-18T04:44:06;46.97;;;22.10;;
43152;SDS011;28756;49.064;9.290;2022-12-18T04:46:31;46.70;;;23.20;;
43152;SDS011;28756;49.064;9.290;2022-12-18T04:48:57;37.10;;;19.17;;
43152;SDS011;28756;49.064;9.290;2022-12-18T04:51:23;37.50;;;19.60;;
43152;SDS011;28756;49.064;9.290;2022-12-18T04:53:49;46.67;;;23.33;;
43152;SDS011;28756;49.064;9.290;2022-12-18T04:56:15;47.83;;;24.00;;
43152;SDS011;28756;49.064;9.290;2022-12-18T04:58:42;42.63;;;22.93;;
43152;SDS011;28756;49.064;9.290;2022-12-18T05:01:09;42.93;;;21.63;;
43152;SDS011;28756;49.064;9.290;2022-12-18T05:03:37;44.97;;;23.10;;
43152;SDS011;28756;49.064;9.290;2022-12-18T05:06:03;44.10;;;22.83;;
43152;SDS011;28756;49.064;9.290;2022-12-18T05:08:31;41.37;;;21.80;;
43152;SDS011;28756;49.064;9.290;2022-12-18T05:11:01;46.80;;;22.90;;
43152;SDS011;28756;49.064;9.290;2022-12-18T05:13:30;42.60;;;21.23;;
43152;SDS011;28756;49.064;9.290;2022-12-18T05:15:57;41.40;;;20.33;;
43152;SDS011;28756;49.064;9.290;2022-12-18T05:18:23;41.77;;;19.67;;
43152;SDS011;28756;49.064;9.290;2022-12-18T05:20:50;37.00;;;18.67;;
43152;SDS011;28756;49.064;9.290;2022-12-18T05:23:16;37.03;;;19.33;;
43152;SDS011;28756;49.064;9.290;2022-12-18T05:25:46;39.37;;;20.83;;
43152;SDS011;28756;49.064;9.290;2022-12-18T05:28:18;37.93;;;19.57;;
43152;SDS011;28756;49.064;9.290;2022-12-18T05:30:49;37.87;;;19.33;;
43152;SDS011;28756;49.064;9.290;2022-12-18T05:33:17;38.10;;;19.07;;
43152;SDS011;28756;49.064;9.290;2022-12-18T05:35:44;32.60;;;17.77;;
43152;SDS011;28756;49.064;9.290;2022-12-18T05:38:14;33.60;;;17.33;;
43152;SDS011;28756;49.064;9.290;2022-12-18T05:40:41;32.57;;;16.80;;
43152;SDS011;28756;49.064;9.290;2022-12-18T05:43:08;34.10;;;16.57;;
43152;SDS011;28756;49.064;9.290;2022-12-18T05:45:36;33.03;;;17.33;;
43152;SDS011;28756;49.064;9.290;2022-12-18T05:48:03;33.57;;;17.77;;
43152;SDS011;28756;49.064;9.290;2022-12-18T05:50:29;35.40;;;18.47;;
43152;SDS011;28756;49.064;9.290;2022-12-18T05:52:55;30.63;;;16.73;;
43152;SDS011;28756;49.064;9.290;2022-12-18T05:55:20;33.10;;;17.10;;
43152;SDS011;28756;49.064;9.290;2022-12-18T05:57:46;33.53;;;17.30;;
43152;SDS011;28756;49.064;9.290;2022-12-18T06:00:12;31.87;;;16.97;;
43152;SDS011;28756;49.064;9.290;2022-12-18T06:02:38;33.87;;;17.73;;
43152;SDS011;28756;49.064;9.290;2022-12-18T06:05:04;30.80;;;16.70;;
43152;SDS011;28756;49.064;9.290;2022-12-18T06:07:30;34.43;;;16.27;;
43152;SDS011;28756;49.064;9.290;2022-12-18T06:09:56;33.70;;;17.20;;
43152;SDS011;28756;49.064;9.290;2022-12-18T06:12:22;34.37;;;17.80;;
43152;SDS011;28756;49.064;9.290;2022-12-18T06:14:47;37.60;;;18.60;;
43152;SDS011;28756;49.064;9.290;2022-12-18T06:17:13;35.73;;;18.10;;
43152;SDS011;28756;49.064;9.290;2022-12-18T06:19:39;34.07;;;17.17;;
43152;SDS011;28756;49.064;9.290;2022-12-18T06:22:04;31.43;;;15.70;;
43152;SDS011;28756;49.064;9.290;2022-12-18T06:24:30;29.90;;;15.30;;
43152;SDS011;28756;49.064;9.290;2022-12-18T06:26:56;36.03;;;16.93;;
43152;SDS011;28756;49.064;9.290;2022-12-18T06:29:21;27.33;;;15.13;;
43152;SDS011;28756;49.064;9.290;2022-12-18T06:31:47;29.07;;;15.03;;
43152;SDS011;28756;49.064;9.290;2022-12-18T06:34:13;30.93;;;15.63;;
43152;SDS011;28756;49.064;9.290;2022-12-18T06:36:38;30.47;;;15.70;;
43152;SDS011;28756;49.064;9.290;2022-12-18T06:39:04;30.33;;;16.13;;
43152;SDS011;28756;49.064;9.290;2022-12-18T06:41:30;31.13;;;15.70;;
43152;SDS011;28756;49.064;9.290;2022-12-18T06:43:57;29.50;;;15.17;;
43152;SDS011;28756;49.064;9.290;2022-12-18T06:46:23;31.87;;;16.20;;
43152;SDS011;28756;49.064;9.290;2022-12-18T06:48:49;29.60;;;14.90;;
43152;SDS011;28756;49.064;9.290;2022-12-18T06:51:16;33.20;;;17.23;;
43152;SDS011;28756;49.064;9.290;2022-12-18T06:53:46;32.33;;;17.30;;
43152;SDS011;28756;49.064;9.290;2022-12-18T06:56:12;35.67;;;16.67;;
43152;SDS011;28756;49.064;9.290;2022-12-18T06:58:38;36.77;;;18.00;;
43152;SDS011;28756;49.064;9.290;2022-12-18T07:01:05;32.63;;;16.77;;
43152;SDS011;28756;49.064;9.290;2022-12-18T07:03:34;36.07;;;17.47;;
43152;SDS011;28756;49.064;9.290;2022-12-18T07:06:01;34.53;;;18.37;;
43152;SDS011;28756;49.064;9.290;2022-12-18T07:08:28;36.40;;;18.50;;
43152;SDS011;28756;49.064;9.290;2022-12-18T07:10:55;29.33;;;15.70;;
43152;SDS011;28756;49.064;9.290;2022-12-18T07:13:21;29.53;;;15.87;;
43152;SDS011;28756;49.064;9.290;2022-12-18T07:15:47;31.80;;;14.97;;
43152;SDS011;28756;49.064;9.290;2022-12-18T07:18:17;27.83;;;14.10;;
43152;SDS011;28756;49.064;9.290;2022-12-18T07:20:43;34.23;;;16.60;;
43152;SDS011;28756;49.064;9.290;2022-12-18T07:23:09;35.97;;;18.10;;
43152;SDS011;28756;49.064;9.290;2022-12-18T07:25:35;36.23;;;19.10;;
43152;SDS011;28756;49.064;9.290;2022-12-18T07:28:01;34.80;;;16.47;;
43152;SDS011;28756;49.064;9.290;2022-12-18T07:30:28;38.40;;;18.67;;
43152;SDS011;28756;49.064;9.290;2022-12-18T07:32:53;36.93;;;18.57;;
43152;SDS011;28756;49.064;9.290;2022-12-18T07:35:19;44.07;;;21.67;;
43152;SDS011;28756;49.064;9.290;2022-12-18T07:37:45;41.73;;;20.83;;
43152;SDS011;28756;49.064;9.290;2022-12-18T07:40:11;44.63;;;23.10;;
43152;SDS011;28756;49.064;9.290;2022-12-18T07:42:37;40.07;;;21.57;;
43152;SDS011;28756;49.064;9.290;2022-12-18T07:45:03;37.80;;;20.60;;
43152;SDS011;28756;49.064;9.290;2022-12-18T07:47:29;37.37;;;18.47;;
43152;SDS011;28756;49.064;9.290;2022-12-18T07:49:55;41.17;;;22.10;;
43152;SDS011;28756;49.064;9.290;2022-12-18T07:52:21;41.67;;;20.47;;
43152;SDS011;28756;49.064;9.290;2022-12-18T07:54:47;39.23;;;20.60;;
43152;SDS011;28756;49.064;9.290;2022-12-18T07:57:14;43.23;;;22.77;;
43152;SDS011;28756;49.064;9.290;2022-12-18T07:59:41;46.57;;;22.57;;
43152;SDS011;28756;49.064;9.290;2022-12-18T08:02:07;47.67;;;24.17;;
43152;SDS011;28756;49.064;9.290;2022-12-18T08:04:33;49.60;;;26.07;;
43152;SDS011;28756;49.064;9.290;2022-12-18T08:06:59;52.07;;;25.73;;
43152;SDS011;28756;49.064;9.290;2022-12-18T08:09:24;45.20;;;24.73;;
43152;SDS011;28756;49.064;9.290;2022-12-18T08:11:50;48.53;;;25.13;;
43152;SDS011;28756;49.064;9.290;2022-12-18T08:14:16;43.70;;;22.60;;
43152;SDS011;28756;49.064;9.290;2022-12-18T08:16:42;48.67;;;24.60;;
43152;SDS011;28756;49.064;9.290;2022-12-18T08:19:07;43.30;;;22.43;;
43152;SDS011;28756;49.064;9.290;2022-12-18T08:21:37;44.67;;;22.70;;
43152;SDS011;28756;49.064;9.290;2022-12-18T08:24:06;45.97;;;23.90;;
43152;SDS011;28756;49.064;9.290;2022-12-18T08:26:31;33.87;;;18.23;;
43152;SDS011;28756;49.064;9.290;2022-12-18T08:28:59;44.00;;;22.27;;
43152;SDS011;28756;49.064;9.290;2022-12-18T08:31:26;41.87;;;21.83;;
43152;SDS011;28756;49.064;9.290;2022-12-18T08:33:54;45.83;;;23.53;;
43152;SDS011;28756;49.064;9.290;2022-12-18T08:36:21;46.07;;;22.37;;
43152;SDS011;28756;49.064;9.290;2022-12-18T08:38:48;49.57;;;23.87;;
43152;SDS011;28756;49.064;9.290;2022-12-18T08:41:14;40.87;;;21.60;;
43152;SDS011;28756;49.064;9.290;2022-12-18T08:43:42;40.67;;;20.70;;
43152;SDS011;28756;49.064;9.290;2022-12-18T08:46:27;44.93;;;21.33;;
43152;SDS011;28756;49.064;9.290;2022-12-18T08:48:57;40.87;;;20.57;;
43152;SDS011;28756;49.064;9.290;2022-12-18T08:51:23;45.77;;;22.60;;
43152;SDS011;28756;49.064;9.290;2022-12-18T08:53:49;40.20;;;21.20;;
43152;SDS011;28756;49.064;9.290;2022-12-18T08:56:15;38.43;;;20.23;;
43152;SDS011;28756;49.064;9.290;2022-12-18T08:58:41;46.30;;;23.50;;
43152;SDS011;28756;49.064;9.290;2022-12-18T09:01:08;50.53;;;22.97;;
43152;SDS011;28756;49.064;9.290;2022-12-18T09:03:37;43.70;;;22.30;;
43152;SDS011;28756;49.064;9.290;2022-12-18T09:06:03;41.63;;;22.47;;
43152;SDS011;28756;49.064;9.290;2022-12-18T09:08:29;37.13;;;20.00;;
43152;SDS011;28756;49.064;9.290;2022-12-18T09:10:55;39.57;;;20.10;;
43152;SDS011;28756;49.064;9.290;2022-12-18T09:13:22;45.43;;;23.17;;
43152;SDS011;28756;49.064;9.290;2022-12-18T09:15:49;43.00;;;21.97;;
43152;SDS011;28756;49.064;9.290;2022-12-18T09:18:19;38.77;;;20.57;;
43152;SDS011;28756;49.064;9.290;2022-12-18T09:20:47;51.13;;;25.57;;
43152;SDS011;28756;49.064;9.290;2022-12-18T09:23:13;53.10;;;27.37;;
43152;SDS011;28756;49.064;9.290;2022-12-18T09:25:39;65.30;;;31.67;;
43152;SDS011;28756;49.064;9.290;2022-12-18T09:28:09;56.60;;;28.70;;
43152;SDS011;28756;49.064;9.290;2022-12-18T09:30:39;64.93;;;30.83;;
43152;SDS011;28756;49.064;9.290;2022-12-18T09:33:06;62.40;;;29.80;;
43152;SDS011;28756;49.064;9.290;2022-12-18T09:35:32;59.77;;;29.37;;
43152;SDS011;28756;49.064;9.290;2022-12-18T09:38:02;54.27;;;26.07;;
43152;SDS011;28756;49.064;9.290;2022-12-18T09:40:28;55.70;;;26.87;;
43152;SDS011;28756;49.064;9.290;2022-12-18T09:43:09;55.80;;;25.97;;
43152;SDS011;28756;49.064;9.290;2022-12-18T09:45:46;49.17;;;23.50;;
43152;SDS011;28756;49.064;9.290;2022-12-18T09:48:23;49.55;;;24.67;;
43152;SDS011;28756;49.064;9.290;2022-12-18T09:50:57;46.70;;;21.80;;
43152;SDS011;28756;49.064;9.290;2022-12-18T09:53:30;47.93;;;20.27;;
43152;SDS011;28756;49.064;9.290;2022-12-18T09:56:00;41.50;;;19.63;;
43152;SDS011;28756;49.064;9.290;2022-12-18T10:01:14;42.33;;;19.30;;
43152;SDS011;28756;49.064;9.290;2022-12-18T10:03:45;40.70;;;18.70;;
43152;SDS011;28756;49.064;9.290;2022-12-18T10:06:20;42.08;;;20.13;;
43152;SDS011;28756;49.064;9.290;2022-12-18T10:09:36;42.70;;;19.48;;
43152;SDS011;28756;49.064;9.290;2022-12-18T10:15:04;39.75;;;18.92;;
43152;SDS011;28756;49.064;9.290;2022-12-18T10:18:20;42.75;;;19.75;;
43152;SDS011;28756;49.064;9.290;2022-12-18T10:21:06;43.42;;;19.02;;
43152;SDS011;28756;49.064;9.290;2022-12-18T10:23:50;38.45;;;18.67;;
43152;SDS011;28756;49.064;9.290;2022-12-18T10:26:46;36.25;;;17.65;;
43152;SDS011;28756;49.064;9.290;2022-12-18T10:29:13;36.80;;;17.38;;
43152;SDS011;28756;49.064;9.290;2022-12-18T10:31:40;37.65;;;18.23;;
43152;SDS011;28756;49.064;9.290;2022-12-18T10:34:10;39.50;;;19.13;;
43152;SDS011;28756;49.064;9.290;2022-12-18T10:36:37;40.00;;;18.75;;
43152;SDS011;28756;49.064;9.290;2022-12-18T10:39:22;39.00;;;19.33;;
43152;SDS011;28756;49.064;9.290;2022-12-18T10:41:51;43.88;;;19.67;;
43152;SDS011;28756;49.064;9.290;2022-12-18T10:44:26;38.65;;;18.13;;
43152;SDS011;28756;49.064;9.290;2022-12-18T10:47:02;43.08;;;19.48;;
43152;SDS011;28756;49.064;9.290;2022-12-18T10:49:31;40.25;;;17.85;;
43152;SDS011;28756;49.064;9.290;2022-12-18T10:52:19;37.88;;;18.15;;
43152;SDS011;28756;49.064;9.290;2022-12-18T10:54:58;38.78;;;18.30;;
43152;SDS011;28756;49.064;9.290;2022-12-18T11:00:21;39.67;;;17.67;;
43152;SDS011;28756;49.064;9.290;2022-12-18T11:02:52;37.55;;;18.15;;
43152;SDS011;28756;49.064;9.290;2022-12-18T11:05:28;38.58;;;19.77;;
43152;SDS011;28756;49.064;9.290;2022-12-18T11:07:59;39.58;;;19.08;;
43152;SDS011;28756;49.064;9.290;2022-12-18T11:10:28;35.58;;;17.83;;
43152;SDS011;28756;49.064;9.290;2022-12-18T11:13:09;33.42;;;17.40;;
43152;SDS011;28756;49.064;9.290;2022-12-18T11:15:47;33.60;;;16.77;;
43152;SDS011;28756;49.064;9.290;2022-12-18T11:21:10;35.45;;;16.90;;
43152;SDS011;28756;49.064;9.290;2022-12-18T11:23:43;32.83;;;17.88;;
43152;SDS011;28756;49.064;9.290;2022-12-18T11:26:18;37.03;;;18.15;;
43152;SDS011;28756;49.064;9.290;2022-12-18T11:28:46;33.83;;;17.05;;
43152;SDS011;28756;49.064;9.290;2022-12-18T11:31:18;34.83;;;16.92;;
43152;SDS011;28756;49.064;9.290;2022-12-18T11:33:58;37.55;;;18.92;;
43152;SDS011;28756;49.064;9.290;2022-12-18T11:36:52;32.78;;;17.70;;
43152;SDS011;28756;49.064;9.290;2022-12-18T11:39:24;37.08;;;18.35;;
43152;SDS011;28756;49.064;9.290;2022-12-18T11:42:11;33.95;;;18.35;;
43152;SDS011;28756;49.064;9.290;2022-12-18T11:44:59;36.45;;;17.65;;
43152;SDS011;28756;49.064;9.290;2022-12-18T11:47:42;28.83;;;14.93;;
43152;SDS011;28756;49.064;9.290;2022-12-18T11:50:47;30.67;;;16.20;;
43152;SDS011;28756;49.064;9.290;2022-12-18T11:53:22;32.22;;;17.40;;
43152;SDS011;28756;49.064;9.290;2022-12-18T12:04:30;33.63;;;17.45;;
43152;SDS011;28756;49.064;9.290;2022-12-18T12:07:51;30.60;;;16.77;;
43152;SDS011;28756;49.064;9.290;2022-12-18T12:22:34;29.77;;;16.63;;
43152;SDS011;28756;49.064;9.290;2022-12-18T12:25:37;29.33;;;15.50;;
43152;SDS011;28756;49.064;9.290;2022-12-18T12:28:26;35.47;;;18.10;;
43152;SDS011;28756;49.064;9.290;2022-12-18T12:34:18;29.40;;;15.27;;
43152;SDS011;28756;49.064;9.290;2022-12-18T12:39:42;40.72;;;20.52;;
43152;SDS011;28756;49.064;9.290;2022-12-18T12:42:12;33.15;;;16.75;;
43152;SDS011;28756;49.064;9.290;2022-12-18T12:45:27;31.95;;;16.80;;
43152;SDS011;28756;49.064;9.290;2022-12-18T12:48:04;28.95;;;15.80;;
43152;SDS011;28756;49.064;9.290;2022-12-18T12:50:40;32.55;;;17.20;;
43152;SDS011;28756;49.064;9.290;2022-12-18T12:53:07;30.13;;;16.10;;
43152;SDS011;28756;49.064;9.290;2022-12-18T12:55:48;33.55;;;17.23;;
43152;SDS011;28756;49.064;9.290;2022-12-18T12:58:17;33.15;;;16.67;;
43152;SDS011;28756;49.064;9.290;2022-12-18T13:01:59;29.73;;;16.10;;
43152;SDS011;28756;49.064;9.290;2022-12-18T13:04:32;26.83;;;13.95;;
43152;SDS011;28756;49.064;9.290;2022-12-18T13:07:15;30.95;;;17.58;;
43152;SDS011;28756;49.064;9.290;2022-12-18T13:15:44;28.23;;;15.13;;
43152;SDS011;28756;49.064;9.290;2022-12-18T13:18:14;62.90;;;32.92;;
43152;SDS011;28756;49.064;9.290;2022-12-18T13:25:57;39.35;;;20.20;;
43152;SDS011;28756;49.064;9.290;2022-12-18T13:31:13;40.05;;;20.88;;
43152;SDS011;28756;49.064;9.290;2022-12-18T13:34:37;40.35;;;19.60;;
43152;SDS011;28756;49.064;9.290;2022-12-18T13:36:57;32.03;;;17.00;;
43152;SDS011;28756;49.064;9.290;2022-12-18T13:39:56;69.07;;;36.30;;
43152;SDS011;28756;49.064;9.290;2022-12-18T13:42:35;49.25;;;27.48;;
43152;SDS011;28756;49.064;9.290;2022-12-18T13:45:35;39.78;;;21.90;;
43152;SDS011;28756;49.064;9.290;2022-12-18T13:48:15;34.38;;;19.45;;
43152;SDS011;28756;49.064;9.290;2022-12-18T13:50:56;35.47;;;19.35;;
43152;SDS011;28756;49.064;9.290;2022-12-18T13:53:28;35.42;;;18.45;;
43152;SDS011;28756;49.064;9.290;2022-12-18T13:56:09;36.22;;;18.63;;
43152;SDS011;28756;49.064;9.290;2022-12-18T13:58:42;33.60;;;17.95;;
43152;SDS011;28756;49.064;9.290;2022-12-18T14:01:21;36.33;;;18.50;;
43152;SDS011;28756;49.064;9.290;2022-12-18T14:03:48;32.05;;;17.73;;
43152;SDS011;28756;49.064;9.290;2022-12-18T14:06:14;30.35;;;15.82;;
43152;SDS011;28756;49.064;9.290;2022-12-18T14:08:41;28.58;;;15.50;;
43152;SDS011;28756;49.064;9.290;2022-12-18T14:11:17;29.63;;;16.42;;
43152;SDS011;28756;49.064;9.290;2022-12-18T14:13:47;34.33;;;17.88;;
43152;SDS011;28756;49.064;9.290;2022-12-18T14:16:13;32.78;;;18.00;;
43152;SDS011;28756;49.064;9.290;2022-12-18T14:21:23;36.78;;;19.33;;
43152;SDS011;28756;49.064;9.290;2022-12-18T14:26:41;37.95;;;20.08;;
43152;SDS011;28756;49.064;9.290;2022-12-18T14:32:05;27.92;;;14.95;;
43152;SDS011;28756;49.064;9.290;2022-12-18T14:34:48;26.40;;;14.15;;
43152;SDS011;28756;49.064;9.290;2022-12-18T14:37:18;26.48;;;14.50;;
43152;SDS011;28756;49.064;9.290;2022-12-18T14:39:55;31.00;;;16.10;;
43152;SDS011;28756;49.064;9.290;2022-12-18T14:42:27;28.67;;;15.70;;
43152;SDS011;28756;49.064;9.290;2022-12-18T14:47:58;32.65;;;16.90;;
43152;SDS011;28756;49.064;9.290;2022-12-18T14:50:25;27.42;;;15.88;;
43152;SDS011;28756;49.064;9.290;2022-12-18T14:52:51;27.15;;;14.68;;
43152;SDS011;28756;49.064;9.290;2022-12-18T14:55:17;30.98;;;17.10;;
43152;SDS011;28756;49.064;9.290;2022-12-18T14:57:46;30.70;;;16.25;;
43152;SDS011;28756;49.064;9.290;2022-12-18T15:00:20;31.80;;;15.52;;
43152;SDS011;28756;49.064;9.290;2022-12-18T15:02:53;26.90;;;14.88;;
43152;SDS011;28756;49.064;9.290;2022-12-18T15:05:25;23.65;;;13.85;;
43152;SDS011;28756;49.064;9.290;2022-12-18T15:07:57;25.10;;;14.05;;
43152;SDS011;28756;49.064;9.290;2022-12-18T15:10:26;22.50;;;13.02;;
43152;SDS011;28756;49.064;9.290;2022-12-18T15:18:11;23.33;;;13.23;;
43152;SDS011;28756;49.064;9.290;2022-12-18T15:20:55;27.13;;;14.65;;
43152;SDS011;28756;49.064;9.290;2022-12-18T15:23:36;27.60;;;14.80;;
43152;SDS011;28756;49.064;9.290;2022-12-18T15:26:15;29.98;;;15.30;;
43152;SDS011;28756;49.064;9.290;2022-12-18T15:31:38;30.55;;;15.75;;
43152;SDS011;28756;49.064;9.290;2022-12-18T15:36:32;29.25;;;15.90;;
43152;SDS011;28756;49.064;9.290;2022-12-18T15:39:01;35.85;;;15.40;;
43152;SDS011;28756;49.064;9.290;2022-12-18T15:41:28;29.27;;;14.02;;
43152;SDS011;28756;49.064;9.290;2022-12-18T15:44:01;29.77;;;14.23;;
43152;SDS011;28756;49.064;9.290;2022-12-18T15:46:27;29.42;;;14.93;;
43152;SDS011;28756;49.064;9.290;2022-12-18T15:48:54;33.58;;;16.88;;
43152;SDS011;28756;49.064;9.290;2022-12-18T15:53:56;35.90;;;18.45;;
43152;SDS011;28756;49.064;9.290;2022-12-18T15:56:25;29.10;;;15.88;;
43152;SDS011;28756;49.064;9.290;2022-12-18T15:59:11;32.45;;;17.30;;
43152;SDS011;28756;49.064;9.290;2022-12-18T16:01:44;34.33;;;18.30;;
43152;SDS011;28756;49.064;9.290;2022-12-18T16:04:14;31.92;;;16.35;;
43152;SDS011;28756;49.064;9.290;2022-12-18T16:06:41;28.50;;;15.73;;
43152;SDS011;28756;49.064;9.290;2022-12-18T16:09:08;31.92;;;17.58;;
43152;SDS011;28756;49.064;9.290;2022-12-18T16:11:34;35.25;;;18.02;;
43152;SDS011;28756;49.064;9.290;2022-12-18T16:14:19;35.80;;;19.00;;
43152;SDS011;28756;49.064;9.290;2022-12-18T16:16:47;31.35;;;16.38;;
43152;SDS011;28756;49.064;9.290;2022-12-18T16:19:16;28.40;;;15.38;;
43152;SDS011;28756;49.064;9.290;2022-12-18T16:21:43;29.58;;;14.95;;
43152;SDS011;28756;49.064;9.290;2022-12-18T16:24:13;35.88;;;18.77;;
43152;SDS011;28756;49.064;9.290;2022-12-18T16:26:47;33.10;;;17.30;;
43152;SDS011;28756;49.064;9.290;2022-12-18T16:29:14;31.58;;;16.60;;
43152;SDS011;28756;49.064;9.290;2022-12-18T16:31:40;30.35;;;16.45;;
43152;SDS011;28756;49.064;9.290;2022-12-18T16:34:25;28.27;;;15.32;;
43152;SDS011;28756;49.064;9.290;2022-12-18T16:36:57;32.03;;;16.15;;